createdAt,value
2023-06-04T00:00:25.918Z,9.358567
2023-06-04T00:01:25.926Z,9.358578
2023-06-04T00:02:26.002Z,9.358574
2023-06-04T00:03:26.172Z,9.358507
2023-06-04T00:04:25.891Z,9.358543
2023-06-04T00:05:25.866Z,9.358545
2023-06-04T00:06:25.865Z,9.358493
2023-06-04T00:07:25.855Z,9.358479
2023-06-04T00:08:25.868Z,9.358469
2023-06-04T00:09:25.825Z,9.358501
2023-06-04T00:10:25.811Z,9.358575
2023-06-04T00:11:25.873Z,9.358661
2023-06-04T00:12:25.834Z,9.358684
2023-06-04T00:13:25.764Z,9.358701
2023-06-04T00:14:25.820Z,9.358610
2023-06-04T00:15:25.766Z,9.358574
2023-06-04T00:16:25.828Z,9.358671
2023-06-04T00:17:25.807Z,9.358662
2023-06-04T00:18:25.734Z,9.358669
2023-06-04T00:19:25.720Z,9.358656
2023-06-04T00:20:25.709Z,9.358649
2023-06-04T00:21:25.704Z,9.358655
2023-06-04T00:22:25.652Z,9.358655
2023-06-04T00:23:25.696Z,9.358678
2023-06-04T00:24:25.705Z,9.358671
2023-06-04T00:25:25.650Z,9.358627
2023-06-04T00:26:25.611Z,9.358590
2023-06-04T00:27:25.641Z,9.358560
2023-06-04T00:28:25.634Z,9.358526
2023-06-04T00:29:25.586Z,9.358585
2023-06-04T00:30:25.637Z,9.358609
2023-06-04T00:31:25.609Z,9.358544
2023-06-04T00:32:25.665Z,9.358512
2023-06-04T00:33:25.566Z,9.358498
2023-06-04T00:34:25.576Z,9.358467
2023-06-04T00:35:25.544Z,9.358484
2023-06-04T00:36:25.548Z,9.358500
2023-06-04T00:37:25.521Z,9.358497
2023-06-04T00:38:25.527Z,9.358525
2023-06-04T00:39:25.512Z,9.358508
2023-06-04T00:40:25.483Z,9.358530
2023-06-04T00:41:25.478Z,9.358543
2023-06-04T00:42:25.495Z,9.358567
2023-06-04T00:43:25.454Z,9.358555
2023-06-04T00:44:25.424Z,9.358556
2023-06-04T00:45:25.476Z,9.358545
2023-06-04T00:46:25.521Z,9.358483
2023-06-04T00:47:25.420Z,9.358466
2023-06-04T00:48:25.421Z,9.358521
2023-06-04T00:49:25.403Z,9.358601
2023-06-04T00:50:25.371Z,9.358628
2023-06-04T00:51:25.383Z,9.358542
2023-06-04T00:52:25.366Z,9.358474
2023-06-04T00:53:25.334Z,9.358478
2023-06-04T00:54:25.351Z,9.358504
2023-06-04T00:55:25.336Z,9.358556
2023-06-04T00:56:25.282Z,9.358576
2023-06-04T00:57:25.301Z,9.358629
2023-06-04T00:58:25.300Z,9.358609
2023-06-04T00:59:25.287Z,9.358571
2023-06-04T01:00:25.260Z,9.358533
2023-06-04T01:01:25.297Z,9.358558
2023-06-04T01:02:25.241Z,9.358544
2023-06-04T01:03:25.301Z,9.358524
2023-06-04T01:04:25.229Z,9.358502
2023-06-04T01:05:25.200Z,9.358486
2023-06-04T01:06:26.195Z,9.358479
2023-06-04T01:07:25.177Z,9.358537
2023-06-04T01:08:25.181Z,9.358548
2023-06-04T01:09:25.193Z,9.358409
2023-06-04T01:10:25.163Z,9.358525
2023-06-04T01:11:25.148Z,9.358492
2023-06-04T01:12:25.150Z,9.358513
2023-06-04T01:13:25.114Z,9.358496
2023-06-04T01:14:25.094Z,9.358500
2023-06-04T01:15:25.123Z,9.358530
2023-06-04T01:16:25.131Z,9.358542
2023-06-04T01:17:25.117Z,9.358519
2023-06-04T01:18:25.085Z,9.358478
2023-06-04T01:19:25.086Z,9.358460
2023-06-04T01:20:25.047Z,9.358503
2023-06-04T01:21:25.032Z,9.358507
2023-06-04T01:22:25.070Z,9.358521
2023-06-04T01:23:25.100Z,9.358490
2023-06-04T01:24:24.971Z,9.358485
2023-06-04T01:25:25.082Z,9.358516
2023-06-04T01:26:24.965Z,9.358546
2023-06-04T01:27:24.971Z,9.358579
2023-06-04T01:28:24.970Z,9.358547
2023-06-04T01:29:24.930Z,9.358541
2023-06-04T01:30:25.929Z,9.358508
2023-06-04T01:31:24.916Z,9.358524
2023-06-04T01:32:24.956Z,9.358572
2023-06-04T01:33:24.896Z,9.358522
2023-06-04T01:34:24.887Z,9.358525
2023-06-04T01:35:27.400Z,9.358552
2023-06-04T01:36:24.872Z,9.358532
2023-06-04T01:37:24.845Z,9.358539
2023-06-04T01:38:24.855Z,9.358508
2023-06-04T01:39:24.842Z,9.358447
2023-06-04T01:40:24.823Z,9.358449
2023-06-04T01:41:24.817Z,9.358457
2023-06-04T01:42:24.825Z,9.358419
2023-06-04T01:43:24.806Z,9.358424
2023-06-04T01:44:24.761Z,9.358436
2023-06-04T01:45:24.803Z,9.358392
2023-06-04T01:46:24.773Z,9.358372
2023-06-04T01:47:24.803Z,9.358439
2023-06-04T01:48:24.731Z,9.358430
2023-06-04T01:49:24.730Z,9.358440
2023-06-04T01:50:24.692Z,9.358461
2023-06-04T01:51:24.690Z,9.358471
2023-06-04T01:52:24.717Z,9.358491
2023-06-04T01:53:24.684Z,9.358509
2023-06-04T01:54:24.640Z,9.358490
2023-06-04T01:55:24.678Z,9.358467
2023-06-04T01:56:24.672Z,9.358481
2023-06-04T01:57:24.615Z,9.358479
2023-06-04T01:58:24.639Z,9.358487
2023-06-04T01:59:24.608Z,9.358467
2023-06-04T02:00:24.592Z,9.358526
2023-06-04T02:01:24.576Z,9.358590
2023-06-04T02:02:24.612Z,9.358566
2023-06-04T02:03:24.718Z,9.358530
2023-06-04T02:04:24.547Z,9.358492
2023-06-04T02:05:24.560Z,9.358445
2023-06-04T02:06:24.508Z,9.358471
2023-06-04T02:07:24.516Z,9.358479
2023-06-04T02:08:24.509Z,9.358534
2023-06-04T02:09:24.506Z,9.358517
2023-06-04T02:10:24.485Z,9.358493
2023-06-04T02:11:24.480Z,9.358469
2023-06-04T02:12:24.495Z,9.358463
2023-06-04T02:13:24.449Z,9.358501
2023-06-04T02:14:24.460Z,9.358513
2023-06-04T02:15:24.437Z,9.358486
2023-06-04T02:16:24.439Z,9.358470
2023-06-04T02:17:24.409Z,9.358495
2023-06-04T02:18:24.405Z,9.358545
2023-06-04T02:19:24.388Z,9.358536
2023-06-04T02:20:24.376Z,9.358508
2023-06-04T02:21:24.378Z,9.358534
2023-06-04T02:22:24.338Z,9.358533
2023-06-04T02:23:24.395Z,9.358572
2023-06-04T02:24:24.348Z,9.358577
2023-06-04T02:25:24.343Z,9.358542
2023-06-04T02:26:24.291Z,9.358554
2023-06-04T02:27:24.317Z,9.358581
2023-06-04T02:28:24.296Z,9.358521
2023-06-04T02:29:24.288Z,9.358521
2023-06-04T02:30:24.277Z,9.358546
2023-06-04T02:31:24.273Z,9.358555
2023-06-04T02:32:24.269Z,9.358541
2023-06-04T02:33:24.239Z,9.358536
2023-06-04T02:34:24.239Z,9.358529
2023-06-04T02:35:24.225Z,9.358569
2023-06-04T02:36:24.220Z,9.358582
2023-06-04T02:37:24.213Z,9.358582
2023-06-04T02:38:25.176Z,9.358591
2023-06-04T02:39:24.167Z,9.358560
2023-06-04T02:40:24.214Z,9.358576
2023-06-04T02:41:24.175Z,9.358574
2023-06-04T02:42:24.110Z,9.358614
2023-06-04T02:43:24.140Z,9.358604
2023-06-04T02:44:25.631Z,9.358598
2023-06-04T02:45:24.137Z,9.358628
2023-06-04T02:46:24.152Z,9.358638
2023-06-04T02:47:24.091Z,9.358588
2023-06-04T02:48:24.098Z,9.358578
2023-06-04T02:49:24.095Z,9.358591
2023-06-04T02:50:24.032Z,9.358659
2023-06-04T02:51:24.021Z,9.358707
2023-06-04T02:52:24.061Z,9.358633
2023-06-04T02:53:24.010Z,9.358527
2023-06-04T02:54:24.020Z,9.358565
2023-06-04T02:55:23.995Z,9.358571
2023-06-04T02:56:23.977Z,9.358656
2023-06-04T02:57:24.005Z,9.358611
2023-06-04T02:58:23.988Z,9.358592
2023-06-04T02:59:23.949Z,9.358536
2023-06-04T03:00:23.947Z,9.358491
2023-06-04T03:01:23.970Z,9.358516
2023-06-04T03:02:23.958Z,9.358565
2023-06-04T03:03:24.042Z,9.358559
2023-06-04T03:04:23.910Z,9.358575
2023-06-04T03:05:23.899Z,9.358538
2023-06-04T03:06:23.895Z,9.358473
2023-06-04T03:07:23.901Z,9.358498
2023-06-04T03:08:23.888Z,9.358459
2023-06-04T03:09:23.828Z,9.358478
2023-06-04T03:10:23.855Z,9.358530
2023-06-04T03:11:23.841Z,9.358498
2023-06-04T03:12:23.805Z,9.358476
2023-06-04T03:13:23.804Z,9.358521
2023-06-04T03:14:23.825Z,9.358546
2023-06-04T03:15:23.787Z,9.358606
2023-06-04T03:16:23.801Z,9.358644
2023-06-04T03:17:23.791Z,9.358552
2023-06-04T03:18:23.776Z,9.358516
2023-06-04T03:19:23.742Z,9.358569
2023-06-04T03:20:23.718Z,9.358535
2023-06-04T03:21:23.736Z,9.358589
2023-06-04T03:22:23.732Z,9.358536
2023-06-04T03:23:23.741Z,9.358511
2023-06-04T03:24:23.670Z,9.358489
2023-06-04T03:25:23.707Z,9.358498
2023-06-04T03:26:23.674Z,9.358475
2023-06-04T03:27:23.657Z,9.358526
2023-06-04T03:28:23.685Z,9.358513
2023-06-04T03:29:23.649Z,9.358513
2023-06-04T03:30:23.619Z,9.358480
2023-06-04T03:31:23.651Z,9.358528
2023-06-04T03:32:23.636Z,9.358521
2023-06-04T03:33:23.593Z,9.358481
2023-06-04T03:34:23.617Z,9.358479
2023-06-04T03:35:23.610Z,9.358533
2023-06-04T03:36:23.561Z,9.358516
2023-06-04T03:37:23.554Z,9.358386
2023-06-04T03:38:23.601Z,9.358452
2023-06-04T03:39:23.554Z,9.358533
2023-06-04T03:40:23.515Z,9.358502
2023-06-04T03:41:23.531Z,9.358556
2023-06-04T03:42:23.496Z,9.358569
2023-06-04T03:43:23.512Z,9.358604
2023-06-04T03:44:23.540Z,9.358573
2023-06-04T03:45:23.482Z,9.358583
2023-06-04T03:46:23.523Z,9.358522
2023-06-04T03:47:23.483Z,9.358454
2023-06-04T03:48:23.473Z,9.358465
2023-06-04T03:49:23.441Z,9.358524
2023-06-04T03:50:23.448Z,9.358502
2023-06-04T03:51:23.422Z,9.358479
2023-06-04T03:52:23.448Z,9.358530
2023-06-04T03:53:23.395Z,9.358481
2023-06-04T03:54:23.383Z,9.358471
2023-06-04T03:55:23.372Z,9.358499
2023-06-04T03:56:23.400Z,9.358480
2023-06-04T03:57:23.345Z,9.358466
2023-06-04T03:58:23.357Z,9.358481
2023-06-04T03:59:23.337Z,9.358533
2023-06-04T04:00:23.307Z,9.358502
2023-06-04T04:01:23.323Z,9.358515
2023-06-04T04:02:23.466Z,9.358419
2023-06-04T04:03:23.377Z,9.358445
2023-06-04T04:04:23.326Z,9.358450
2023-06-04T04:05:23.293Z,9.358496
2023-06-04T04:06:23.270Z,9.358431
2023-06-04T04:07:23.256Z,9.358479
2023-06-04T04:08:23.278Z,9.358513
2023-06-04T04:09:23.239Z,9.358462
2023-06-04T04:10:23.195Z,9.358500
2023-06-04T04:11:23.235Z,9.358465
2023-06-04T04:12:24.247Z,9.358451
2023-06-04T04:13:23.198Z,9.358546
2023-06-04T04:14:23.216Z,9.358457
2023-06-04T04:15:23.190Z,9.358605
2023-06-04T04:16:23.156Z,9.358668
2023-06-04T04:17:23.162Z,9.358549
2023-06-04T04:18:23.206Z,9.358421
2023-06-04T04:19:23.158Z,9.358478
2023-06-04T04:20:23.105Z,9.358557
2023-06-04T04:21:23.111Z,9.358536
2023-06-04T04:22:23.082Z,9.358477
2023-06-04T04:23:23.151Z,9.358502
2023-06-04T04:24:23.103Z,9.358479
2023-06-04T04:25:23.082Z,9.358418
2023-06-04T04:26:23.060Z,9.358551
2023-06-04T04:27:23.042Z,9.358659
2023-06-04T04:28:23.065Z,9.358663
2023-06-04T04:29:23.045Z,9.358597
2023-06-04T04:30:23.030Z,9.358618
2023-06-04T04:31:23.137Z,9.358603
2023-06-04T04:32:23.065Z,9.358543
2023-06-04T04:33:23.002Z,9.358497
2023-06-04T04:34:22.996Z,9.358498
2023-06-04T04:35:22.961Z,9.358458
2023-06-04T04:36:24.655Z,9.358479
2023-06-04T04:37:23.972Z,9.358489
2023-06-04T04:38:22.968Z,9.358575
2023-06-04T04:39:22.928Z,9.358561
2023-06-04T04:40:22.927Z,9.358486
2023-06-04T04:41:22.911Z,9.358477
2023-06-04T04:42:22.912Z,9.358446
2023-06-04T04:43:22.868Z,9.358430
2023-06-04T04:44:22.889Z,9.358503
2023-06-04T04:45:22.835Z,9.358543
2023-06-04T04:46:22.935Z,9.358608
2023-06-04T04:47:22.864Z,9.358603
2023-06-04T04:48:22.794Z,9.358481
2023-06-04T04:49:22.810Z,9.358461
2023-06-04T04:50:22.817Z,9.358467
2023-06-04T04:51:22.815Z,9.358478
2023-06-04T04:52:22.778Z,9.358471
2023-06-04T04:53:22.758Z,9.358467
2023-06-04T04:54:22.763Z,9.358463
2023-06-04T04:55:22.739Z,9.358455
2023-06-04T04:56:22.732Z,9.358459
2023-06-04T04:57:22.728Z,9.358444
2023-06-04T04:58:22.758Z,9.358439
2023-06-04T04:59:22.711Z,9.358413
2023-06-04T05:00:22.671Z,9.358396
2023-06-04T05:01:22.766Z,9.358444
2023-06-04T05:02:22.680Z,9.358420
2023-06-04T05:03:22.672Z,9.358393
2023-06-04T05:04:22.735Z,9.358374
2023-06-04T05:05:22.642Z,9.358426
2023-06-04T05:06:22.600Z,9.358459
2023-06-04T05:07:22.635Z,9.358467
2023-06-04T05:08:22.659Z,9.358465
2023-06-04T05:09:22.566Z,9.358442
2023-06-04T05:10:22.597Z,9.358448
2023-06-04T05:11:22.571Z,9.358475
2023-06-04T05:12:22.531Z,9.358467
2023-06-04T05:13:22.549Z,9.358513
2023-06-04T05:14:22.569Z,9.358492
2023-06-04T05:15:22.551Z,9.358452
2023-06-04T05:16:22.544Z,9.358459
2023-06-04T05:17:22.569Z,9.358459
2023-06-04T05:18:22.472Z,9.358470
2023-06-04T05:19:22.483Z,9.358526
2023-06-04T05:20:22.492Z,9.358565
2023-06-04T05:21:22.496Z,9.358528
2023-06-04T05:22:22.420Z,9.358537
2023-06-04T05:23:22.449Z,9.358621
2023-06-04T05:24:22.440Z,9.358630
2023-06-04T05:25:22.427Z,9.358572
2023-06-04T05:26:22.419Z,9.358548
2023-06-04T05:27:22.386Z,9.358569
2023-06-04T05:28:22.396Z,9.358557
2023-06-04T05:29:22.384Z,9.358525
2023-06-04T05:30:22.357Z,9.358521
2023-06-04T05:31:22.345Z,9.358562
2023-06-04T05:32:22.369Z,9.358515
2023-06-04T05:33:22.330Z,9.358512
2023-06-04T05:34:22.339Z,9.358604
2023-06-04T05:35:22.303Z,9.358511
2023-06-04T05:36:22.271Z,9.358493
2023-06-04T05:37:22.293Z,9.358507
2023-06-04T05:38:22.330Z,9.358559
2023-06-04T05:39:22.253Z,9.358571
2023-06-04T05:40:22.277Z,9.358600
2023-06-04T05:41:22.320Z,9.358550
2023-06-04T05:42:22.233Z,9.358533
2023-06-04T05:43:22.299Z,9.358549
2023-06-04T05:44:22.246Z,9.358593
2023-06-04T05:45:22.185Z,9.358653
2023-06-04T05:46:22.166Z,9.358495
2023-06-04T05:47:22.156Z,9.358528
2023-06-04T05:48:22.189Z,9.358540
2023-06-04T05:49:22.184Z,9.358580
2023-06-04T05:50:22.180Z,9.358603
2023-06-04T05:51:22.112Z,9.358644
2023-06-04T05:52:22.140Z,9.358484
2023-06-04T05:53:22.107Z,9.358531
2023-06-04T05:54:22.154Z,9.358514
2023-06-04T05:55:22.105Z,9.358512
2023-06-04T05:56:22.127Z,9.358541
2023-06-04T05:57:22.095Z,9.358607
2023-06-04T05:58:22.086Z,9.358615
2023-06-04T05:59:22.019Z,9.358594
2023-06-04T06:00:21.998Z,9.358615
2023-06-04T06:01:21.996Z,9.358629
2023-06-04T06:02:22.069Z,9.358600
2023-06-04T06:03:22.120Z,9.358542
2023-06-04T06:04:22.038Z,9.358570
2023-06-04T06:05:22.005Z,9.358572
2023-06-04T06:06:22.040Z,9.358593
2023-06-04T06:07:22.094Z,9.358607
2023-06-04T06:08:21.977Z,9.358617
2023-06-04T06:09:21.925Z,9.358591
2023-06-04T06:10:21.934Z,9.358566
2023-06-04T06:11:21.931Z,9.358570
2023-06-04T06:12:21.885Z,9.358615
2023-06-04T06:13:21.849Z,9.358584
2023-06-04T06:14:21.890Z,9.358535
2023-06-04T06:15:21.871Z,9.358551
2023-06-04T06:16:21.970Z,9.358562
2023-06-04T06:17:21.914Z,9.358525
2023-06-04T06:18:21.827Z,9.358517
2023-06-04T06:19:21.827Z,9.358555
2023-06-04T06:20:21.806Z,9.358581
2023-06-04T06:21:21.784Z,9.358560
2023-06-04T06:22:21.817Z,9.358596
2023-06-04T06:23:21.798Z,9.358588
2023-06-04T06:24:21.757Z,9.358498
2023-06-04T06:25:21.773Z,9.358497
2023-06-04T06:26:21.711Z,9.358538
2023-06-04T06:27:21.823Z,9.358514
2023-06-04T06:28:21.746Z,9.358599
2023-06-04T06:29:21.766Z,9.358562
2023-06-04T06:30:21.658Z,9.358552
2023-06-04T06:31:21.791Z,9.358587
2023-06-04T06:32:21.718Z,9.358646
2023-06-04T06:33:21.724Z,9.358567
2023-06-04T06:34:21.641Z,9.358544
2023-06-04T06:35:21.681Z,9.358527
2023-06-04T06:36:21.638Z,9.358521
2023-06-04T06:37:21.605Z,9.358525
2023-06-04T06:38:21.616Z,9.358541
2023-06-04T06:39:21.612Z,9.358591
2023-06-04T06:40:21.587Z,9.358545
2023-06-04T06:41:21.602Z,9.358532
2023-06-04T06:42:21.565Z,9.358553
2023-06-04T06:43:21.557Z,9.358679
2023-06-04T06:44:21.582Z,9.358683
2023-06-04T06:45:21.563Z,9.358644
2023-06-04T06:46:21.566Z,9.358706
2023-06-04T06:47:21.511Z,9.358659
2023-06-04T06:48:21.562Z,9.358542
2023-06-04T06:49:21.491Z,9.358521
2023-06-04T06:50:21.454Z,9.358749
2023-06-04T06:51:21.473Z,9.358706
2023-06-04T06:52:21.494Z,9.358536
2023-06-04T06:53:21.443Z,9.358483
2023-06-04T06:54:21.444Z,9.358482
2023-06-04T06:55:21.497Z,9.358454
2023-06-04T06:56:21.414Z,9.358558
2023-06-04T06:57:21.411Z,9.358661
2023-06-04T06:58:21.460Z,9.358569
2023-06-04T06:59:21.402Z,9.358562
2023-06-04T07:00:21.373Z,9.358527
2023-06-04T07:01:21.412Z,9.358549
2023-06-04T07:02:21.454Z,9.358631
2023-06-04T07:03:21.377Z,9.358671
2023-06-04T07:04:21.360Z,9.358579
2023-06-04T07:05:21.406Z,9.358507
2023-06-04T07:06:21.373Z,9.358594
2023-06-04T07:07:21.296Z,9.358514
2023-06-04T07:08:21.332Z,9.358581
2023-06-04T07:09:21.283Z,9.358543
2023-06-04T07:10:21.323Z,9.358542
2023-06-04T07:11:21.241Z,9.358496
2023-06-04T07:12:21.310Z,9.358503
2023-06-04T07:13:21.242Z,9.358522
2023-06-04T07:14:21.226Z,9.358520
2023-06-04T07:15:21.302Z,9.358525
2023-06-04T07:16:21.380Z,9.358500
2023-06-04T07:17:21.271Z,9.358510
2023-06-04T07:18:21.202Z,9.358483
2023-06-04T07:19:21.173Z,9.358492
2023-06-04T07:20:21.178Z,9.358513
2023-06-04T07:21:21.138Z,9.358522
2023-06-04T07:22:21.158Z,9.358547
2023-06-04T07:23:21.239Z,9.358537
2023-06-04T07:24:21.100Z,9.358522
2023-06-04T07:25:21.120Z,9.358570
2023-06-04T07:26:21.119Z,9.358540
2023-06-04T07:27:21.159Z,9.358508
2023-06-04T07:28:21.102Z,9.358562
2023-06-04T07:29:21.075Z,9.358591
2023-06-04T07:30:21.131Z,9.358583
2023-06-04T07:31:21.072Z,9.358603
2023-06-04T07:32:21.109Z,9.358577
2023-06-04T07:33:21.052Z,9.358518
2023-06-04T07:34:21.003Z,9.358591
2023-06-04T07:35:20.998Z,9.358595
2023-06-04T07:36:21.074Z,9.358572
2023-06-04T07:37:20.985Z,9.358582
2023-06-04T07:38:20.957Z,9.358534
2023-06-04T07:39:21.049Z,9.358546
2023-06-04T07:40:20.964Z,9.358582
2023-06-04T07:41:20.916Z,9.358580
2023-06-04T07:42:20.992Z,9.358548
2023-06-04T07:43:20.915Z,9.358567
2023-06-04T07:44:20.923Z,9.358598
2023-06-04T07:45:20.970Z,9.358629
2023-06-04T07:46:20.950Z,9.358574
2023-06-04T07:47:20.889Z,9.358608
2023-06-04T07:48:20.865Z,9.358634
2023-06-04T07:49:20.912Z,9.358629
2023-06-04T07:50:20.832Z,9.358568
2023-06-04T07:51:20.816Z,9.358550
2023-06-04T07:52:20.946Z,9.358571
2023-06-04T07:53:20.793Z,9.358583
2023-06-04T07:54:20.764Z,9.358535
2023-06-04T07:55:20.816Z,9.358494
2023-06-04T07:56:20.787Z,9.358531
2023-06-04T07:57:20.743Z,9.358508
2023-06-04T07:58:20.771Z,9.358501
2023-06-04T07:59:20.809Z,9.358528
2023-06-04T08:00:20.714Z,9.358558
2023-06-04T08:01:20.711Z,9.358528
2023-06-04T08:02:20.842Z,9.358535
2023-06-04T08:03:20.768Z,9.358527
2023-06-04T08:04:20.783Z,9.358540
2023-06-04T08:05:20.763Z,9.358545
2023-06-04T08:06:20.695Z,9.358559
2023-06-04T08:07:20.638Z,9.358562
2023-06-04T08:08:20.684Z,9.358572
2023-06-04T08:09:20.631Z,9.358588
2023-06-04T08:10:20.623Z,9.358564
2023-06-04T08:11:20.637Z,9.358598
2023-06-04T08:12:20.605Z,9.358598
2023-06-04T08:13:20.599Z,9.358542
2023-06-04T08:14:20.552Z,9.358529
2023-06-04T08:15:20.594Z,9.358521
2023-06-04T08:16:20.622Z,9.358501
2023-06-04T08:17:20.561Z,9.358490
2023-06-04T08:18:20.559Z,9.358500
2023-06-04T08:19:20.504Z,9.358559
2023-06-04T08:20:20.525Z,9.358544
2023-06-04T08:21:20.508Z,9.358577
2023-06-04T08:22:20.505Z,9.358614
2023-06-04T08:23:20.526Z,9.358554
2023-06-04T08:24:20.508Z,9.358518
2023-06-04T08:25:20.470Z,9.358545
2023-06-04T08:26:20.485Z,9.358558
2023-06-04T08:27:20.431Z,9.358550
2023-06-04T08:28:20.470Z,9.358479
2023-06-04T08:29:20.416Z,9.358495
2023-06-04T08:30:20.392Z,9.358534
2023-06-04T08:31:20.434Z,9.358495
2023-06-04T08:32:20.389Z,9.358507
2023-06-04T08:33:20.427Z,9.358537
2023-06-04T08:34:20.345Z,9.358488
2023-06-04T08:35:20.403Z,9.358509
2023-06-04T08:36:20.349Z,9.358515
2023-06-04T08:37:20.290Z,9.358508
2023-06-04T08:38:20.443Z,9.358476
2023-06-04T08:39:20.308Z,9.358468
2023-06-04T08:40:20.329Z,9.358529
2023-06-04T08:41:20.351Z,9.358546
2023-06-04T08:42:20.305Z,9.358494
2023-06-04T08:43:20.271Z,9.358489
2023-06-04T08:44:20.358Z,9.358543
2023-06-04T08:45:20.253Z,9.358562
2023-06-04T08:46:20.259Z,9.358484
2023-06-04T08:47:20.289Z,9.358430
2023-06-04T08:48:20.218Z,9.358448
2023-06-04T08:49:20.219Z,9.358491
2023-06-04T08:50:20.201Z,9.358593
2023-06-04T08:51:20.199Z,9.358625
2023-06-04T08:52:20.184Z,9.358565
2023-06-04T08:53:20.287Z,9.358566
2023-06-04T08:54:20.154Z,9.358602
2023-06-04T08:55:20.140Z,9.358602
2023-06-04T08:56:20.163Z,9.358508
2023-06-04T08:57:20.108Z,9.358484
2023-06-04T08:58:20.107Z,9.358560
2023-06-04T08:59:20.237Z,9.358547
2023-06-04T09:00:20.244Z,9.358517
2023-06-04T09:01:20.146Z,9.358500
2023-06-04T09:02:20.090Z,9.358542
2023-06-04T09:03:20.180Z,9.358609
2023-06-04T09:04:20.117Z,9.358645
2023-06-04T09:05:20.054Z,9.358537
2023-06-04T09:06:19.993Z,9.358548
2023-06-04T09:07:20.090Z,9.358644
2023-06-04T09:08:20.028Z,9.358604
2023-06-04T09:09:20.066Z,9.358527
2023-06-04T09:10:20.069Z,9.358550
2023-06-04T09:11:19.960Z,9.358570
2023-06-04T09:12:19.972Z,9.358565
2023-06-04T09:13:19.950Z,9.358546
2023-06-04T09:14:19.897Z,9.358518
2023-06-04T09:15:19.926Z,9.358481
2023-06-04T09:16:19.992Z,9.358478
2023-06-04T09:17:19.886Z,9.358591
2023-06-04T09:18:19.910Z,9.358636
2023-06-04T09:19:19.907Z,9.358647
2023-06-04T09:20:19.953Z,9.358603
2023-06-04T09:21:19.893Z,9.358534
2023-06-04T09:22:19.855Z,9.358471
2023-06-04T09:23:20.023Z,9.358454
2023-06-04T09:24:19.836Z,9.358516
2023-06-04T09:25:19.922Z,9.358520
2023-06-04T09:26:19.830Z,9.358544
2023-06-04T09:27:19.864Z,9.358494
2023-06-04T09:28:19.877Z,9.358518
2023-06-04T09:29:19.902Z,9.358506
2023-06-04T09:30:19.748Z,9.358504
2023-06-04T09:31:19.840Z,9.358560
2023-06-04T09:32:19.759Z,9.358536
2023-06-04T09:33:19.738Z,9.358490
2023-06-04T09:34:19.769Z,9.358442
2023-06-04T09:35:19.802Z,9.358479
2023-06-04T09:36:19.672Z,9.358496
2023-06-04T09:37:19.717Z,9.358524
2023-06-04T09:38:19.719Z,9.358597
2023-06-04T09:39:19.655Z,9.358584
2023-06-04T09:40:19.726Z,9.358580
2023-06-04T09:41:19.633Z,9.358488
2023-06-04T09:42:19.653Z,9.358477
2023-06-04T09:43:19.656Z,9.358484
2023-06-04T09:44:19.615Z,9.358478
2023-06-04T09:45:19.605Z,9.358495
2023-06-04T09:46:19.670Z,9.358497
2023-06-04T09:47:19.607Z,9.358508
2023-06-04T09:48:19.657Z,9.358534
2023-06-04T09:49:19.556Z,9.358533
2023-06-04T09:50:19.519Z,9.358506
2023-06-04T09:51:19.582Z,9.358473
2023-06-04T09:52:19.533Z,9.358520
2023-06-04T09:53:19.528Z,9.358517
2023-06-04T09:54:19.491Z,9.358574
2023-06-04T09:55:19.479Z,9.358547
2023-06-04T09:56:19.515Z,9.358506
2023-06-04T09:57:19.504Z,9.358498
2023-06-04T09:58:19.523Z,9.358516
2023-06-04T09:59:19.459Z,9.358526
2023-06-04T10:00:19.449Z,9.358541
2023-06-04T10:01:19.464Z,9.358583
2023-06-04T10:02:19.445Z,9.358590
2023-06-04T10:03:19.545Z,9.358569
2023-06-04T10:04:19.389Z,9.358574
2023-06-04T10:05:19.421Z,9.358554
2023-06-04T10:06:19.455Z,9.358555
2023-06-04T10:07:19.401Z,9.358493
2023-06-04T10:08:19.392Z,9.358500
2023-06-04T10:09:19.407Z,9.358523
2023-06-04T10:10:19.340Z,9.358572
2023-06-04T10:11:19.340Z,9.358585
2023-06-04T10:12:19.345Z,9.358564
2023-06-04T10:13:19.387Z,9.358560
2023-06-04T10:14:19.333Z,9.358550
2023-06-04T10:15:19.276Z,9.358541
2023-06-04T10:16:32.774Z,9.358500
2023-06-04T10:17:21.343Z,9.358490
2023-06-04T10:18:19.342Z,9.358500
2023-06-04T10:19:19.261Z,9.358517
2023-06-04T10:20:19.341Z,9.358557
2023-06-04T10:21:19.205Z,9.358568
2023-06-04T10:22:19.303Z,9.358511
2023-06-04T10:23:19.299Z,9.358521
2023-06-04T10:24:19.179Z,9.358554
2023-06-04T10:25:19.226Z,9.358537
2023-06-04T10:26:19.199Z,9.358590
2023-06-04T10:27:19.197Z,9.358624
2023-06-04T10:28:19.147Z,9.358606
2023-06-04T10:29:19.181Z,9.358603
2023-06-04T10:30:19.203Z,9.358546
2023-06-04T10:31:19.169Z,9.358523
2023-06-04T10:32:19.131Z,9.358517
2023-06-04T10:33:19.536Z,9.358532
2023-06-04T10:34:20.106Z,9.358552
2023-06-04T10:35:19.115Z,9.358548
2023-06-04T10:36:19.147Z,9.358530
2023-06-04T10:37:19.095Z,9.358545
2023-06-04T10:38:19.096Z,9.358552
2023-06-04T10:39:19.077Z,9.358547
2023-06-04T10:40:19.069Z,9.358542
2023-06-04T10:41:19.041Z,9.358523
2023-06-04T10:42:19.074Z,9.358500
2023-06-04T10:43:19.049Z,9.358514
2023-06-04T10:44:18.991Z,9.358534
2023-06-04T10:45:19.048Z,9.358506
2023-06-04T10:46:19.034Z,9.358487
2023-06-04T10:47:18.959Z,9.358519
2023-06-04T10:48:19.017Z,9.358523
2023-06-04T10:49:18.958Z,9.358522
2023-06-04T10:50:19.746Z,9.358502
2023-06-04T10:51:18.944Z,9.358451
2023-06-04T10:52:18.932Z,9.358462
2023-06-04T10:53:18.946Z,9.358496
2023-06-04T10:54:18.916Z,9.358546
2023-06-04T10:55:18.927Z,9.358541
2023-06-04T10:56:18.940Z,9.358488
2023-06-04T10:57:18.881Z,9.358473
2023-06-04T10:58:18.911Z,9.358483
2023-06-04T10:59:19.000Z,9.358574
2023-06-04T11:00:18.867Z,9.358573
2023-06-04T11:01:18.874Z,9.358572
2023-06-04T11:02:18.930Z,9.358556
2023-06-04T11:03:19.006Z,9.358561
2023-06-04T11:04:18.933Z,9.358525
2023-06-04T11:05:18.811Z,9.358569
2023-06-04T11:06:18.764Z,9.358608
2023-06-04T11:07:18.806Z,9.358610
2023-06-04T11:08:18.783Z,9.358618
2023-06-04T11:09:18.733Z,9.358593
2023-06-04T11:10:18.830Z,9.358569
2023-06-04T11:11:18.725Z,9.358585
2023-06-04T11:12:18.738Z,9.358595
2023-06-04T11:13:18.745Z,9.358559
2023-06-04T11:14:18.718Z,9.358596
2023-06-04T11:15:18.700Z,9.358643
2023-06-04T11:16:18.772Z,9.358574
2023-06-04T11:17:18.733Z,9.358599
2023-06-04T11:18:18.683Z,9.358613
2023-06-04T11:19:18.649Z,9.358584
2023-06-04T11:20:19.262Z,9.358580
2023-06-04T11:21:18.635Z,9.358607
2023-06-04T11:22:18.702Z,9.358612
2023-06-04T11:23:18.603Z,9.358705
2023-06-04T11:24:18.579Z,9.358674
2023-06-04T11:25:18.648Z,9.358656
2023-06-04T11:26:18.569Z,9.358567
2023-06-04T11:27:32.207Z,9.358515
2023-06-04T11:28:20.634Z,9.358462
2023-06-04T11:29:18.561Z,9.358503
2023-06-04T11:30:18.537Z,9.358496
2023-06-04T11:31:18.579Z,9.358516
2023-06-04T11:32:18.533Z,9.358501
2023-06-04T11:33:18.540Z,9.358505
2023-06-04T11:34:18.542Z,9.358453
2023-06-04T11:35:18.519Z,9.358458
2023-06-04T11:36:18.497Z,9.358460
2023-06-04T11:37:18.458Z,9.358465
2023-06-04T11:38:18.459Z,9.358499
2023-06-04T11:39:18.502Z,9.358515
2023-06-04T11:40:18.483Z,9.358497
2023-06-04T11:41:18.431Z,9.358507
2023-06-04T11:42:18.429Z,9.358513
2023-06-04T11:43:18.418Z,9.358537
2023-06-04T11:44:18.415Z,9.358521